Time;durP1;ratioP1;P1;durP2;ratioP2;P2;SDS_P1;SDS_P2;PMS_P1;PMS_P2;Temp;Humidity;BMP_temperature;BMP_pressure;BME280_temperature;BME280_humidity;BME280_pressure;Samples;Min_cycle;Max_cycle;Signal;HPM_P1;HPM_P2
2022/10/14 00:00:17;;;;;;;15.57;11.07;;;;;;;20.48;52.45;99967.75;4121934;28;20278;-30
2022/10/14 00:02:18;;;;;;;15.43;10.60;;;;;;;18.42;55.94;100021.13;4127922;28;20651;-30
2022/10/14 00:04:20;;;;;;;16.33;10.50;;;;;;;18.77;57.02;100027.16;4121031;28;20309;-30
2022/10/14 00:06:25;;;;;;;12.17;10.63;;;;;;;20.25;54.18;99949.41;4104803;28;20261;-30
2022/10/14 00:08:26;;;;;;;14.57;10.53;;;;;;;19.30;55.81;99998.53;4115305;28;20257;-30
2022/10/14 00:10:28;;;;;;;13.47;10.77;;;;;;;20.10;53.72;99968.59;4130320;28;20242;-30
2022/10/14 00:12:30;;;;;;;15.03;10.60;;;;;;;20.12;53.70;99980.00;4130804;28;20789;-30
2022/10/14 00:14:32;;;;;;;13.57;10.30;;;;;;;20.12;53.59;99995.38;4102538;28;20816;-30
2022/10/14 00:16:38;;;;;;;14.07;10.57;;;;;;;20.19;53.47;99990.75;4128394;28;20272;-30
2022/10/14 00:18:39;;;;;;;17.77;10.23;;;;;;;20.04;53.84;100002.69;4126444;28;22421;-30
2022/10/14 00:20:41;;;;;;;15.70;10.10;;;;;;;19.99;54.38;100007.06;4129287;28;20907;-30
2022/10/14 00:22:42;;;;;;;15.20;10.33;;;;;;;19.29;56.04;100046.25;4127680;28;20238;-30
2022/10/14 00:24:44;;;;;;;11.97;10.47;;;;;;;19.62;55.10;100021.13;4128704;28;20253;-30
2022/10/14 00:26:46;;;;;;;12.77;10.40;;;;;;;19.09;56.58;100040.06;4128535;28;20281;-30
2022/10/14 00:28:48;;;;;;;12.80;10.20;;;;;;;19.33;55.99;100033.19;4104385;28;20261;-30
2022/10/14 00:30:59;;;;;;;14.70;10.43;;;;;;;18.99;56.40;100031.56;4124335;28;20226;-30
2022/10/14 00:33:01;;;;;;;12.30;9.27;;;;;;;18.61;57.51;100054.53;4103871;28;20729;-30
2022/10/14 00:35:02;;;;;;;13.83;9.27;;;;;;;19.63;56.02;99970.69;4125771;28;20738;-30
2022/10/14 00:37:04;;;;;;;11.40;9.57;;;;;;;18.98;56.90;100033.41;4127690;28;21104;-30
2022/10/14 00:39:06;;;;;;;12.23;9.30;;;;;;;19.23;56.61;100003.94;4131122;28;20883;-30
2022/10/14 00:41:15;;;;;;;11.40;8.97;;;;;;;20.13;54.50;99954.69;4126167;28;20236;-30
2022/10/14 00:43:18;;;;;;;12.33;9.17;;;;;;;20.01;54.51;99975.28;4130550;28;20277;-30
2022/10/14 00:45:23;;;;;;;12.03;8.50;;;;;;;20.31;53.81;99969.31;4102852;28;20930;-30
2022/10/14 00:47:24;;;;;;;13.03;8.87;;;;;;;20.71;53.11;99963.63;4126912;28;20264;-30
2022/10/14 00:49:33;;;;;;;13.57;9.10;;;;;;;19.96;54.27;100026.38;4129238;28;20233;-30
2022/10/14 00:51:36;;;;;;;12.53;8.77;;;;;;;19.38;56.26;100048.75;4122486;28;20706;-30
2022/10/14 00:53:41;;;;;;;9.37;7.73;;;;;;;18.25;58.62;100066.41;4100973;28;20252;-30
2022/10/14 00:55:43;;;;;;;13.43;8.83;;;;;;;19.49;56.48;99988.78;4123170;28;20210;-29
2022/10/14 00:57:44;;;;;;;11.20;7.63;;;;;;;19.78;55.57;99971.25;4126895;28;20932;-30
2022/10/14 00:59:46;;;;;;;10.70;7.60;;;;;;;19.64;56.07;99986.69;4125176;28;20266;-30
2022/10/14 01:01:48;;;;;;;14.97;8.17;;;;;;;19.76;55.68;99977.88;4102371;28;20268;-30
2022/10/14 01:03:50;;;;;;;12.23;8.23;;;;;;;17.86;59.92;100049.06;4127446;28;20256;-30
2022/10/14 01:06:39;;;;;;;12.33;8.30;;;;;;;20.14;55.54;99942.81;4128092;28;20319;-30
2022/10/14 01:08:48;;;;;;;10.60;8.60;;;;;;;20.10;54.96;99955.09;4096407;28;20800;-30
2022/10/14 01:10:54;;;;;;;16.87;8.83;;;;;;;20.59;53.89;99955.41;4116612;28;20663;-30
2022/10/14 01:13:13;;;;;;;15.40;8.93;;;;;;;20.41;54.05;99970.50;4131407;28;20646;-30
2022/10/14 01:15:35;;;;;;;11.27;8.77;;;;;;;18.38;58.50;100052.19;4107392;28;20272;-30
2022/10/14 01:17:56;;;;;;;16.67;9.33;;;;;;;18.24;59.06;100062.09;4123741;28;20233;-30
2022/10/14 01:20:21;;;;;;;16.27;9.87;;;;;;;19.44;57.45;99959.75;4126012;28;20783;-30
2022/10/14 01:22:57;;;;;;;15.37;10.30;;;;;;;19.42;57.49;99945.66;4105408;28;20725;-30
2022/10/14 01:25:07;;;;;;;15.07;10.27;;;;;;;19.89;55.77;99948.16;4124518;28;20353;-30
2022/10/14 01:27:41;;;;;;;14.73;10.20;;;;;;;20.62;53.65;99941.47;4122859;28;20221;-30
2022/10/14 01:30:01;;;;;;;13.83;10.17;;;;;;;21.09;52.32;99936.47;4126237;28;20342;-30
2022/10/14 01:32:11;;;;;;;13.70;10.60;;;;;;;21.53;51.57;99931.00;4130220;28;20256;-30
2022/10/14 01:34:22;;;;;;;14.73;10.70;;;;;;;21.32;52.09;99953.91;4095369;28;20264;-30
2022/10/14 01:36:55;;;;;;;15.90;11.53;;;;;;;21.40;51.76;99940.09;4123675;28;20259;-30
2022/10/14 01:39:10;;;;;;;16.43;12.60;;;;;;;20.96;52.16;99975.28;4124882;28;20272;-30
2022/10/14 01:41:20;;;;;;;16.13;11.63;;;;;;;21.41;51.47;99949.00;4127285;28;20264;-31
2022/10/14 01:43:26;;;;;;;13.77;11.13;;;;;;;20.83;53.06;100005.09;4126111;28;20225;-30
2022/10/14 01:45:31;;;;;;;18.00;11.40;;;;;;;21.50;51.39;99953.09;4126225;28;20253;-30
2022/10/14 01:47:34;;;;;;;16.90;11.23;;;;;;;21.59;51.30;99957.13;4082716;28;20273;-30
2022/10/14 01:50:00;;;;;;;16.73;11.13;;;;;;;21.57;51.31;99959.22;4101038;28;20268;-30
2022/10/14 01:52:18;;;;;;;15.50;11.50;;;;;;;21.58;51.66;99976.28;4135386;28;20234;-30
2022/10/14 01:54:29;;;;;;;14.57;10.80;;;;;;;21.26;51.93;99987.25;4135805;28;20241;-30
2022/10/14 01:56:32;;;;;;;13.87;10.90;;;;;;;21.70;51.04;99961.81;4123111;28;20229;-30
2022/10/14 01:58:42;;;;;;;18.37;12.33;;;;;;;21.33;51.46;99960.97;4130052;28;20236;-30
2022/10/14 02:00:46;;;;;;;16.50;11.93;;;;;;;21.00;51.96;99994.56;4130396;28;20737;-30
2022/10/14 02:02:48;;;;;;;17.90;11.20;;;;;;;21.24;51.52;99971.28;4129654;28;20231;-30
2022/10/14 02:04:50;;;;;;;17.07;12.17;;;;;;;21.23;52.03;99974.19;4125993;28;20823;-30
2022/10/14 02:07:27;;;;;;;18.10;12.57;;;;;;;21.65;51.04;99941.91;4138703;28;20945;-30
2022/10/14 02:09:43;;;;;;;19.37;12.23;;;;;;;19.72;55.54;100003.66;4104019;28;20283;-30
2022/10/14 02:12:03;;;;;;;16.80;12.27;;;;;;;20.03;54.09;100000.22;4128661;28;20232;-30
2022/10/14 02:14:42;;;;;;;18.23;12.20;;;;;;;20.63;53.54;99924.19;4126249;28;20675;-30
2022/10/14 02:16:52;;;;;;;16.87;12.07;;;;;;;19.60;54.83;100000.78;4107700;28;20260;-30
2022/10/14 02:19:07;;;;;;;15.57;12.40;;;;;;;18.47;57.30;100025.91;4109201;28;20237;-30
2022/10/14 02:21:21;;;;;;;14.93;12.07;;;;;;;19.39;57.25;99932.59;4129128;28;20237;-30
2022/10/14 02:23:29;;;;;;;16.90;12.47;;;;;;;18.28;59.05;100005.97;4123084;28;20237;-30
2022/10/14 02:25:35;;;;;;;19.20;12.60;;;;;;;19.40;57.16;99922.63;4100466;28;20232;-30
2022/10/14 02:27:38;;;;;;;18.60;11.60;;;;;;;20.39;54.42;99882.66;4126406;28;20273;-30
2022/10/14 02:29:44;;;;;;;16.60;12.33;;;;;;;19.91;55.30;99916.41;4122389;28;20260;-30
2022/10/14 02:31:47;;;;;;;16.80;12.50;;;;;;;20.11;55.13;99897.38;4126013;28;20232;-30
2022/10/14 02:33:55;;;;;;;20.73;11.80;;;;;;;19.60;56.05;99944.16;4127263;28;20241;-30
2022/10/14 02:35:57;;;;;;;16.93;12.07;;;;;;;20.02;54.94;99904.91;4128775;28;20485;-30
2022/10/14 02:38:01;;;;;;;15.33;11.97;;;;;;;19.73;55.13;99940.56;4127855;28;20284;-30
2022/10/14 02:40:06;;;;;;;14.97;11.80;;;;;;;20.03;54.67;99919.25;4122880;28;20248;-30
2022/10/14 02:42:08;;;;;;;16.00;12.07;;;;;;;19.23;56.52;99966.22;4130136;28;20233;-30
2022/10/14 02:44:10;;;;;;;15.17;11.17;;;;;;;18.73;58.15;99982.84;4130760;28;20206;-30
2022/10/14 02:46:12;;;;;;;16.87;12.10;;;;;;;18.70;58.04;99968.97;4124806;28;20205;-30
2022/10/14 02:48:13;;;;;;;18.83;13.00;;;;;;;19.18;56.70;99949.03;4130614;28;20206;-30
2022/10/14 02:50:17;;;;;;;17.10;11.67;;;;;;;19.03;57.91;99931.25;4128319;28;21125;-30
2022/10/14 02:52:19;;;;;;;20.50;12.10;;;;;;;18.36;59.24;99963.53;4130224;28;20244;-31
2022/10/14 02:54:21;;;;;;;17.30;12.77;;;;;;;18.50;58.66;99948.22;4126367;28;20220;-30
2022/10/14 02:56:23;;;;;;;16.67;11.70;;;;;;;18.74;57.96;99933.28;4123756;28;20234;-30
2022/10/14 02:58:25;;;;;;;15.30;11.90;;;;;;;19.05;57.41;99918.38;4122667;28;20234;-30
2022/10/14 03:00:27;;;;;;;16.87;11.60;;;;;;;18.90;57.65;99936.66;4123786;28;20685;-30
2022/10/14 03:02:28;;;;;;;15.00;11.27;;;;;;;19.31;56.86;99905.84;4130015;28;20843;-30
2022/10/14 03:04:30;;;;;;;18.83;12.77;;;;;;;19.58;56.58;99865.31;4128444;28;20217;-30
2022/10/14 03:06:31;;;;;;;13.87;12.13;;;;;;;18.56;58.44;99933.09;4124130;28;20301;-30
2022/10/14 03:08:33;;;;;;;15.33;11.43;;;;;;;19.10;57.03;99899.72;4130354;28;20257;-30
2022/10/14 03:10:35;;;;;;;19.73;12.20;;;;;;;19.50;56.82;99853.72;4123564;28;20210;-30
2022/10/14 03:12:36;;;;;;;14.00;10.97;;;;;;;18.80;57.95;99917.38;4104909;28;20262;-30
2022/10/14 03:14:38;;;;;;;17.60;12.47;;;;;;;18.27;59.53;99939.72;4122037;28;20265;-29
2022/10/14 03:16:40;;;;;;;16.03;12.07;;;;;;;19.54;55.83;99855.97;4125229;28;20313;-30
2022/10/14 03:18:41;;;;;;;13.83;12.10;;;;;;;20.00;54.63;99863.81;4104200;28;20276;-30
2022/10/14 03:20:44;;;;;;;16.43;11.83;;;;;;;20.53;54.21;99845.53;4134014;28;20261;-30
2022/10/14 03:22:45;;;;;;;16.83;12.20;;;;;;;21.08;52.32;99836.69;4113997;28;20720;-30
2022/10/14 03:24:47;;;;;;;18.10;12.97;;;;;;;20.84;53.07;99857.28;4148935;28;20315;-30
2022/10/14 03:26:49;;;;;;;15.03;12.23;;;;;;;21.41;52.03;99857.91;4134605;28;20262;-30
2022/10/14 03:28:50;;;;;;;17.20;12.40;;;;;;;21.12;52.08;99864.91;4128255;28;20309;-30
2022/10/14 03:30:52;;;;;;;17.83;12.20;;;;;;;21.14;52.24;99868.19;4138496;28;20275;-30
2022/10/14 03:32:54;;;;;;;19.20;12.60;;;;;;;21.51;51.61;99846.50;4138891;28;20229;-30
2022/10/14 03:34:56;;;;;;;18.87;12.83;;;;;;;21.25;52.07;99866.63;4130066;28;20708;-30
2022/10/14 03:36:58;;;;;;;16.03;12.53;;;;;;;21.70;51.23;99858.97;4138213;28;20262;-30
2022/10/14 03:38:59;;;;;;;15.40;12.43;;;;;;;21.31;51.68;99869.25;4110554;28;20257;-30
2022/10/14 03:41:01;;;;;;;16.50;12.53;;;;;;;21.74;50.86;99851.22;4135997;28;20256;-30
2022/10/14 03:43:03;;;;;;;20.23;12.50;;;;;;;21.52;51.08;99854.41;4139036;28;20225;-30
2022/10/14 03:45:05;;;;;;;17.10;12.50;;;;;;;21.58;51.29;99858.09;4130701;28;20261;-30
2022/10/14 03:47:07;;;;;;;18.87;12.33;;;;;;;20.30;53.85;99935.25;4140168;28;20272;-30
2022/10/14 03:49:08;;;;;;;15.33;12.87;;;;;;;20.73;53.22;99888.56;4118873;28;20233;-30
2022/10/14 03:51:10;;;;;;;17.67;12.43;;;;;;;19.44;56.13;99945.44;4142684;28;20252;-29
2022/10/14 03:53:12;;;;;;;17.77;11.80;;;;;;;19.82;55.56;99902.31;4142274;28;20248;-30
2022/10/14 03:55:14;;;;;;;17.50;12.50;;;;;;;19.87;55.64;99872.81;4142170;28;20261;-30
2022/10/14 03:57:15;;;;;;;16.83;12.37;;;;;;;20.14;55.07;99844.81;4140742;28;20241;-30
2022/10/14 03:59:17;;;;;;;16.43;12.30;;;;;;;19.91;54.61;99877.78;4112023;28;20245;-30
2022/10/14 04:01:19;;;;;;;17.97;12.27;;;;;;;20.37;54.54;99849.66;4143819;28;20739;-30
2022/10/14 04:03:20;;;;;;;13.90;11.50;;;;;;;20.25;54.75;99849.50;4138263;28;20771;-30
2022/10/14 04:05:22;;;;;;;16.37;11.90;;;;;;;19.48;56.13;99904.31;4128136;28;20240;-30
2022/10/14 04:07:24;;;;;;;15.53;10.83;;;;;;;19.99;54.82;99861.31;4115372;28;20252;-30
2022/10/14 04:09:27;;;;;;;16.43;11.17;;;;;;;19.83;55.71;99854.59;4115547;28;20324;-30
2022/10/14 04:11:29;;;;;;;16.67;11.17;;;;;;;18.45;57.99;99920.28;4121709;28;20256;-30
2022/10/14 04:13:31;;;;;;;21.93;10.77;;;;;;;19.55;56.12;99852.28;4128800;28;20359;-30
2022/10/14 04:15:34;;;;;;;16.00;10.00;;;;;;;19.87;54.65;99867.41;4128736;28;20261;-30
2022/10/14 04:17:36;;;;;;;19.67;10.43;;;;;;;21.01;52.69;99792.69;4121772;28;20706;-29
2022/10/14 04:19:38;;;;;;;15.23;11.17;;;;;;;18.81;56.86;99919.00;4107588;28;20860;-30
2022/10/14 04:21:40;;;;;;;14.13;10.27;;;;;;;19.47;55.66;99873.03;4111078;28;20237;-30
2022/10/14 04:23:41;;;;;;;14.63;9.73;;;;;;;18.19;58.70;99920.03;4125583;28;20261;-30
2022/10/14 04:25:43;;;;;;;15.87;9.80;;;;;;;18.36;58.53;99914.28;4122633;28;20245;-30
2022/10/14 04:27:45;;;;;;;12.23;10.30;;;;;;;19.21;56.40;99881.22;4125410;28;20328;-30
2022/10/14 04:29:46;;;;;;;17.13;9.90;;;;;;;18.66;57.56;99914.69;4105166;28;21499;-30
2022/10/14 04:31:48;;;;;;;14.37;10.43;;;;;;;19.29;56.37;99875.59;4139466;28;20258;-29
2022/10/14 04:33:50;;;;;;;12.87;9.97;;;;;;;20.64;54.19;99795.38;4137172;28;20265;-29
2022/10/14 04:36:02;;;;;;;15.80;10.93;;;;;;;21.36;52.28;99793.66;4118123;28;20232;-30
2022/10/14 04:38:04;;;;;;;16.43;10.87;;;;;;;20.66;53.51;99818.41;4137602;28;20701;-30
2022/10/14 04:40:06;;;;;;;14.90;10.73;;;;;;;21.31;52.02;99790.00;4135074;28;20257;-30
2022/10/14 04:42:08;;;;;;;15.53;11.33;;;;;;;21.53;51.39;99795.72;4129917;28;20226;-30
2022/10/14 04:44:09;;;;;;;16.33;11.30;;;;;;;21.59;51.07;99796.69;4126270;28;20272;-30
2022/10/14 04:46:11;;;;;;;15.90;10.43;;;;;;;20.17;53.33;99876.78;4127026;28;20261;-30
2022/10/14 04:48:13;;;;;;;13.70;10.53;;;;;;;19.36;55.14;99900.66;4132687;28;20316;-30
2022/10/14 04:50:16;;;;;;;15.40;10.43;;;;;;;20.67;53.06;99811.09;4121061;28;20257;-30
2022/10/14 04:52:18;;;;;;;12.83;10.80;;;;;;;21.08;52.29;99791.53;4122666;28;20256;-30
2022/10/14 04:54:20;;;;;;;14.33;11.30;;;;;;;20.92;52.93;99803.78;4106620;28;20230;-30
2022/10/14 04:56:22;;;;;;;16.97;11.20;;;;;;;21.57;51.23;99777.16;4118588;28;20252;-30
2022/10/14 04:58:23;;;;;;;17.53;11.10;;;;;;;21.47;51.22;99783.94;4129270;28;20708;-30
2022/10/14 05:00:25;;;;;;;15.60;11.00;;;;;;;21.37;51.79;99789.06;4140228;23;20339;-30
2022/10/14 05:02:27;;;;;;;15.70;10.73;;;;;;;21.04;51.90;99800.31;4169414;28;20236;-30
2022/10/14 05:04:28;;;;;;;15.73;9.90;;;;;;;21.11;52.32;99807.31;4158337;28;20259;-29
2022/10/14 05:06:31;;;;;;;14.13;10.90;;;;;;;20.50;52.89;99837.88;4157357;28;20240;-29
2022/10/14 05:08:32;;;;;;;15.73;9.43;;;;;;;21.28;51.79;99774.25;4145197;28;20769;-30
2022/10/14 05:10:34;;;;;;;15.60;11.43;;;;;;;21.37;51.51;99775.56;4142005;28;20334;-30
2022/10/14 05:12:37;;;;;;;13.80;10.10;;;;;;;21.37;51.23;99786.38;4150479;28;20275;-30
2022/10/14 05:14:39;;;;;;;14.17;10.87;;;;;;;21.81;50.41;99769.94;4154234;28;20753;-30
2022/10/14 05:16:41;;;;;;;17.60;11.10;;;;;;;21.71;50.67;99756.97;4142893;28;20762;-30
2022/10/14 05:18:42;;;;;;;15.70;10.57;;;;;;;21.84;50.44;99764.06;4156133;28;20220;-30
2022/10/14 05:20:44;;;;;;;15.40;10.73;;;;;;;21.96;49.94;99756.75;4157789;28;20267;-30
2022/10/14 05:22:46;;;;;;;14.40;10.00;;;;;;;21.87;50.51;99760.88;4162757;28;20256;-30
2022/10/14 05:24:47;;;;;;;12.87;10.37;;;;;;;21.76;50.58;99745.44;4149709;28;20298;-29
2022/10/14 05:26:50;;;;;;;14.27;10.20;;;;;;;21.95;50.21;99759.69;4146319;28;20268;-30
2022/10/14 05:28:51;;;;;;;15.30;11.40;;;;;;;21.96;49.91;99751.34;4163019;28;20697;-30
2022/10/14 05:30:54;;;;;;;15.73;11.00;;;;;;;22.20;49.45;99752.19;4156264;28;20245;-30
2022/10/14 05:32:55;;;;;;;19.57;12.07;;;;;;;22.41;48.83;99734.53;4169086;28;20255;-30
2022/10/14 05:34:57;;;;;;;15.03;11.00;;;;;;;22.31;49.22;99742.44;4145844;28;20673;-30
2022/10/14 05:36:59;;;;;;;19.00;12.80;;;;;;;22.32;48.96;99746.81;4159253;28;20252;-30
2022/10/14 05:39:01;;;;;;;19.57;13.23;;;;;;;22.62;48.49;99740.38;4162544;28;20340;-30
2022/10/14 05:41:03;;;;;;;16.27;12.90;;;;;;;22.75;48.40;99742.00;4150382;28;20608;-30
2022/10/14 05:43:05;;;;;;;16.73;12.33;;;;;;;22.84;48.02;99752.22;4171159;28;20629;-29
2022/10/14 05:45:07;;;;;;;21.17;13.37;;;;;;;22.52;48.35;99765.34;4136295;28;20247;-30
2022/10/14 05:47:09;;;;;;;15.57;12.83;;;;;;;22.40;48.99;99762.66;4174254;28;20208;-29
2022/10/14 05:49:11;;;;;;;19.43;13.37;;;;;;;21.90;49.83;99796.44;4162249;28;20251;-29
2022/10/14 05:51:14;;;;;;;18.40;12.83;;;;;;;21.98;49.82;99794.44;4143844;28;20258;-30
2022/10/14 05:53:16;;;;;;;21.30;14.23;;;;;;;22.21;49.08;99766.53;4149065;28;20287;-30
2022/10/14 05:55:17;;;;;;;18.67;13.87;;;;;;;22.22;48.92;99763.59;4151551;28;20232;-30
2022/10/14 05:57:19;;;;;;;17.90;13.47;;;;;;;22.13;49.33;99769.59;4134980;28;20263;-30
2022/10/14 05:59:21;;;;;;;18.00;13.23;;;;;;;21.73;49.78;99793.56;4136552;28;20284;-30
2022/10/14 06:01:22;;;;;;;15.90;12.97;;;;;;;21.79;50.01;99783.69;4146117;28;20274;-30
2022/10/14 06:03:24;;;;;;;17.53;13.80;;;;;;;21.52;50.38;99794.88;4155648;28;20596;-30
2022/10/14 06:05:26;;;;;;;15.93;13.00;;;;;;;21.80;50.16;99779.09;4154506;28;20236;-30
2022/10/14 06:07:27;;;;;;;18.87;13.00;;;;;;;21.62;50.50;99783.50;4153846;28;21032;-30
2022/10/14 06:09:30;;;;;;;15.40;12.60;;;;;;;20.83;51.63;99821.31;4159145;28;20646;-30
2022/10/14 06:11:31;;;;;;;14.43;12.07;;;;;;;21.55;50.66;99763.84;4141366;28;20239;-30
2022/10/14 06:13:34;;;;;;;16.97;12.60;;;;;;;21.62;50.47;99761.84;4153046;28;20705;-30
2022/10/14 06:15:36;;;;;;;15.90;11.90;;;;;;;21.61;50.67;99779.13;4141105;28;20276;-30
2022/10/14 06:17:37;;;;;;;15.83;12.50;;;;;;;21.86;50.29;99757.34;4162192;28;20282;-30
2022/10/14 06:19:39;;;;;;;16.57;13.33;;;;;;;21.69;50.28;99768.00;4164759;28;20725;-30
2022/10/14 06:21:41;;;;;;;15.40;12.63;;;;;;;21.87;50.16;99755.47;4155583;28;20259;-30
2022/10/14 06:23:42;;;;;;;16.23;11.80;;;;;;;21.41;50.87;99789.44;4158178;28;20225;-30
2022/10/14 06:25:44;;;;;;;17.33;12.70;;;;;;;21.62;50.61;99778.09;4135519;28;20278;-30
2022/10/14 06:27:46;;;;;;;15.03;11.70;;;;;;;21.78;50.47;99764.97;4147327;28;20332;-30
2022/10/14 06:29:47;;;;;;;15.67;12.23;;;;;;;21.78;50.49;99760.41;4161185;28;20601;-29
2022/10/14 06:31:49;;;;;;;16.90;11.90;;;;;;;21.79;50.23;99756.63;4149628;28;20243;-30
2022/10/14 06:33:51;;;;;;;16.30;12.67;;;;;;;21.78;50.17;99755.00;4163365;28;20328;-30
2022/10/14 06:35:52;;;;;;;17.73;12.40;;;;;;;21.84;50.44;99747.81;4164812;28;20538;-30
2022/10/14 06:37:54;;;;;;;16.90;12.80;;;;;;;21.89;50.44;99745.22;4167393;28;20765;-30
2022/10/14 06:39:56;;;;;;;15.70;12.17;;;;;;;21.88;50.04;99748.97;4167099;28;20259;-31
2022/10/14 06:41:57;;;;;;;19.03;12.70;;;;;;;21.87;50.26;99740.03;4155931;28;20255;-30
2022/10/14 06:43:59;;;;;;;20.80;12.90;;;;;;;21.98;50.12;99741.09;4162273;28;20267;-28
2022/10/14 06:46:02;;;;;;;17.00;12.07;;;;;;;21.98;50.27;99741.09;4163716;28;20255;-30
2022/10/14 06:48:04;;;;;;;14.80;12.93;;;;;;;21.82;50.60;99747.22;4166691;28;20266;-30
2022/10/14 06:50:06;;;;;;;16.40;12.40;;;;;;;21.99;50.10;99742.75;4162421;28;20265;-31
2022/10/14 06:52:08;;;;;;;19.20;12.53;;;;;;;20.71;52.33;99796.13;4154430;28;20306;-30
2022/10/14 06:54:10;;;;;;;15.33;13.63;;;;;;;21.08;52.63;99751.00;4147687;28;20243;-30
2022/10/14 06:56:11;;;;;;;17.80;12.53;;;;;;;21.72;50.99;99699.91;4144206;28;20335;-30
2022/10/14 06:58:13;;;;;;;17.23;13.37;;;;;;;21.84;50.30;99701.81;4156459;28;20656;-30
2022/10/14 07:00:15;;;;;;;17.07;13.43;;;;;;;21.84;50.78;99715.34;4152897;28;20319;-31
2022/10/14 07:02:17;;;;;;;16.23;13.40;;;;;;;22.36;49.75;99693.78;4142371;28;20295;-31
2022/10/14 07:04:18;;;;;;;14.40;11.77;;;;;;;22.25;49.68;99690.00;4155689;28;20282;-31
2022/10/14 07:06:20;;;;;;;18.67;12.53;;;;;;;22.32;49.80;99686.38;4148682;28;20255;-29
2022/10/14 07:08:22;;;;;;;16.87;13.67;;;;;;;22.43;49.94;99697.19;4143260;28;20241;-28
2022/10/14 07:10:23;;;;;;;21.93;14.03;;;;;;;22.71;49.09;99673.06;4151324;28;20264;-31
2022/10/14 07:12:26;;;;;;;18.70;13.70;;;;;;;22.65;49.04;99672.97;4140962;28;20240;-30
2022/10/14 07:14:27;;;;;;;17.40;14.13;;;;;;;22.60;49.36;99682.88;4168916;28;20232;-31
2022/10/14 07:16:29;;;;;;;16.33;13.10;;;;;;;22.87;49.12;99676.91;4166508;28;20689;-29
2022/10/14 07:18:31;;;;;;;20.90;13.93;;;;;;;23.06;48.56;99662.09;4168640;28;20327;-29
2022/10/14 07:20:33;;;;;;;18.80;15.43;;;;;;;23.28;47.90;99673.06;4172301;28;20350;-31
2022/10/14 07:22:35;;;;;;;18.27;14.33;;;;;;;22.69;48.90;99700.41;4148777;28;20243;-28
2022/10/14 07:24:39;;;;;;;25.33;14.80;;;;;;;22.64;49.37;99703.84;4157078;28;20251;-30
2022/10/14 07:26:41;;;;;;;21.07;14.37;;;;;;;22.54;49.58;99713.63;4157485;28;20268;-31
2022/10/14 07:28:43;;;;;;;24.33;14.33;;;;;;;22.36;49.61;99731.72;4153727;28;20323;-28
2022/10/14 07:30:44;;;;;;;21.17;14.20;;;;;;;22.64;49.23;99721.97;4162391;28;20286;-29
2022/10/14 07:32:46;;;;;;;17.90;13.57;;;;;;;23.12;48.67;99680.09;4142190;28;20256;-29
2022/10/14 07:34:48;;;;;;;17.90;13.67;;;;;;;22.90;48.80;99689.97;4164621;28;20488;-29
2022/10/14 07:36:49;;;;;;;19.97;13.97;;;;;;;22.68;49.18;99715.03;4154098;28;20759;-29
2022/10/14 07:38:51;;;;;;;19.23;13.93;;;;;;;22.57;49.34;99721.28;4149747;28;20251;-28
2022/10/14 07:41:01;;;;;;;20.77;13.03;;;;;;;22.63;49.58;99721.16;4158277;28;20741;-28
2022/10/14 07:43:02;;;;;;;17.67;13.53;;;;;;;22.71;49.35;99725.41;4154975;28;20647;-29
2022/10/14 07:45:05;;;;;;;23.70;13.73;;;;;;;22.48;49.58;99728.97;4161735;28;20608;-31
2022/10/14 07:47:07;;;;;;;17.73;11.57;;;;;;;22.39;50.16;99739.38;4156708;28;20508;-29
2022/10/14 07:49:19;;;;;;;17.23;13.10;;;;;;;22.51;49.85;99728.50;4161800;28;20303;-29
2022/10/14 07:51:20;;;;;;;16.77;13.00;;;;;;;21.80;51.66;99730.38;4162499;28;20231;-29
2022/10/14 07:53:23;;;;;;;22.83;13.53;;;;;;;22.59;49.89;99683.94;4161306;28;20950;-29
2022/10/14 07:55:25;;;;;;;18.83;12.97;;;;;;;21.22;52.84;99778.66;4169884;28;20267;-28
2022/10/14 07:57:27;;;;;;;19.67;13.27;;;;;;;20.86;53.11;99780.34;4164563;28;20236;-29
2022/10/14 07:59:29;;;;;;;18.07;12.87;;;;;;;21.85;51.84;99708.84;4149206;28;20278;-29
2022/10/14 08:01:30;;;;;;;18.03;12.70;;;;;;;21.36;52.97;99734.16;4168507;28;20243;-29
2022/10/14 08:03:32;;;;;;;15.33;12.90;;;;;;;22.31;50.68;99676.63;4147315;28;20282;-30
2022/10/14 08:05:34;;;;;;;14.40;12.37;;;;;;;20.76;54.24;99763.84;4151729;28;20731;-29
2022/10/14 08:07:39;;;;;;;19.77;12.80;;;;;;;21.41;52.26;99735.34;4158907;28;20236;-29
2022/10/14 08:09:41;;;;;;;19.83;13.17;;;;;;;21.57;52.67;99718.44;4160974;28;20267;-29
2022/10/14 08:11:43;;;;;;;21.27;15.63;;;;;;;21.34;53.18;99739.00;4173691;28;20263;-29
2022/10/14 08:13:45;;;;;;;17.63;14.00;;;;;;;22.00;51.64;99684.88;4172190;28;20331;-29
2022/10/14 08:15:47;;;;;;;17.27;13.60;;;;;;;21.81;51.35;99722.03;4170914;28;20701;-29
2022/10/14 08:17:48;;;;;;;18.10;13.17;;;;;;;21.04;53.50;99771.44;4164140;28;20266;-31
2022/10/14 08:19:50;;;;;;;15.43;12.13;;;;;;;21.49;52.57;99724.19;4147254;28;20286;-28
2022/10/14 08:21:52;;;;;;;17.10;12.50;;;;;;;21.69;52.13;99721.19;4147060;28;20486;-29
2022/10/14 08:23:54;;;;;;;20.63;12.87;;;;;;;21.58;52.87;99720.09;4147865;28;20232;-29
2022/10/14 08:25:55;;;;;;;20.23;12.77;;;;;;;21.21;53.04;99758.09;4155027;28;21000;-29
2022/10/14 08:27:57;;;;;;;16.57;13.13;;;;;;;22.37;50.84;99649.41;4151904;28;20224;-31
2022/10/14 08:29:59;;;;;;;16.77;12.67;;;;;;;22.07;51.39;99701.81;4148821;28;20267;-29
2022/10/14 08:32:00;;;;;;;16.07;12.30;;;;;;;22.19;51.16;99676.59;4147791;28;20610;-31
2022/10/14 08:34:02;;;;;;;21.50;12.37;;;;;;;21.78;52.23;99722.53;4144985;28;20291;-30
2022/10/14 08:36:04;;;;;;;17.77;12.23;;;;;;;20.78;53.22;99759.84;4153145;28;20255;-31
2022/10/14 08:38:06;;;;;;;16.27;11.97;;;;;;;21.01;53.56;99752.97;4158188;28;20252;-28
2022/10/14 08:40:15;;;;;;;15.77;11.37;;;;;;;20.91;54.70;99729.13;4154006;28;20270;-31
2022/10/14 08:42:38;;;;;;;16.70;11.83;;;;;;;22.18;51.40;99659.50;4163708;28;20224;-31
2022/10/14 08:44:40;;;;;;;19.43;11.13;;;;;;;21.13;53.41;99747.59;4165909;28;20659;-28
2022/10/14 08:46:46;;;;;;;17.43;11.60;;;;;;;20.72;53.98;99752.66;4160196;28;20240;-28
2022/10/14 08:49:02;;;;;;;14.33;11.23;;;;;;;20.18;55.43;99756.94;4158043;28;20235;-30
2022/10/14 08:51:09;;;;;;;18.03;10.60;;;;;;;20.89;53.82;99723.16;4166263;28;20625;-31
2022/10/14 08:53:18;;;;;;;17.67;11.30;;;;;;;20.48;54.15;99750.84;4172276;28;20255;-31
2022/10/14 08:55:29;;;;;;;15.10;10.60;;;;;;;20.89;54.68;99701.53;4173488;28;20771;-28
2022/10/14 08:57:50;;;;;;;15.47;11.03;;;;;;;20.60;54.51;99738.25;4164168;28;20235;-28
2022/10/14 08:59:53;;;;;;;15.07;10.60;;;;;;;19.93;55.50;99748.88;4146311;28;20267;-29
2022/10/14 09:02:22;;;;;;;15.40;11.20;;;;;;;21.30;53.75;99648.53;4152967;28;20693;-30
2022/10/14 09:04:24;;;;;;;14.43;10.57;;;;;;;21.55;52.25;99663.75;4160508;28;20784;-30
2022/10/14 09:06:29;;;;;;;14.20;10.10;;;;;;;22.41;50.75;99628.06;4160724;28;20228;-28
2022/10/14 09:08:44;;;;;;;11.93;10.20;;;;;;;22.30;50.98;99650.59;4162362;28;20327;-30
2022/10/14 09:10:46;;;;;;;16.77;10.63;;;;;;;21.88;51.16;99705.69;4153638;28;20263;-30
2022/10/14 09:12:49;;;;;;;12.17;10.73;;;;;;;20.90;53.54;99762.63;4171601;28;20326;-30
2022/10/14 09:15:17;;;;;;;14.67;10.03;;;;;;;21.54;52.44;99700.81;4153493;28;20634;-28
2022/10/14 09:17:25;;;;;;;15.47;10.47;;;;;;;20.67;54.74;99749.81;4161642;28;20251;-30
2022/10/14 09:19:31;;;;;;;14.80;11.10;;;;;;;21.13;53.56;99704.34;4158251;28;20456;-30
2022/10/14 09:21:38;;;;;;;15.47;10.63;;;;;;;21.57;53.65;99677.06;4162646;28;20236;-28
2022/10/14 09:24:11;;;;;;;14.63;10.57;;;;;;;22.16;52.00;99634.56;4166503;28;20315;-28
2022/10/14 09:26:18;;;;;;;18.23;12.03;;;;;;;20.35;55.72;99754.53;4160647;28;20764;-28
2022/10/14 09:28:23;;;;;;;16.03;10.17;;;;;;;20.84;55.18;99708.66;4145812;28;20271;-30
2022/10/14 09:30:36;;;;;;;15.47;10.07;;;;;;;19.85;56.98;99747.28;4150235;28;20239;-30
2022/10/14 09:32:47;;;;;;;12.80;9.20;;;;;;;21.25;54.68;99637.59;4138192;28;20232;-30